Aviation Digital Data Service (ADDS)

Output produced by METARs form (1413 UTC 08 May 2021)
found at http://aviationweather.gov/metar/data/
 
KIAH 081353Z 16007KT 10SM BKN020 23/19 A3002 RMK AO2 SLP164 T02330194
KIAH 081310Z 0813/0918 16008KT P6SM BKN250 
     TEMPO 0813/0815 BKN017 
     FM081500 16014G24KT P6SM SCT030 
     FM081800 17015G25KT P6SM SCT045 
     FM090100 16014KT P6SM SCT025 
     FM090600 17015KT P6SM BKN025 
     FM090900 17012KT P6SM BKN015 
     FM091500 18014KT P6SM BKN025